sensor_id;sensor_type;location;lat;lon;timestamp;P1;durP1;ratioP1;P2;durP2;ratioP2
9775;SDS011;4927;52.472;13.108;2022-08-01T00:00:06;3.20;;;3.00;;
9775;SDS011;4927;52.472;13.108;2022-08-01T00:05:14;3.60;;;3.40;;
9775;SDS011;4927;52.472;13.108;2022-08-01T00:10:20;4.03;;;3.72;;
9775;SDS011;4927;52.472;13.108;2022-08-01T00:15:30;3.40;;;3.30;;
9775;SDS011;4927;52.472;13.108;2022-08-01T00:20:36;3.40;;;3.30;;
9775;SDS011;4927;52.472;13.108;2022-08-01T00:25:47;3.80;;;3.50;;
9775;SDS011;4927;52.472;13.108;2022-08-01T00:30:53;3.80;;;3.70;;
9775;SDS011;4927;52.472;13.108;2022-08-01T00:36:00;3.67;;;3.37;;
9775;SDS011;4927;52.472;13.108;2022-08-01T00:41:07;4.30;;;4.00;;
9775;SDS011;4927;52.472;13.108;2022-08-01T00:46:13;4.20;;;4.00;;
9775;SDS011;4927;52.472;13.108;2022-08-01T00:51:20;3.67;;;3.58;;
9775;SDS011;4927;52.472;13.108;2022-08-01T00:56:26;3.60;;;3.40;;
9775;SDS011;4927;52.472;13.108;2022-08-01T01:01:32;3.83;;;3.62;;
9775;SDS011;4927;52.472;13.108;2022-08-01T01:06:44;3.60;;;3.40;;
9775;SDS011;4927;52.472;13.108;2022-08-01T01:17:29;3.83;;;3.70;;
9775;SDS011;4927;52.472;13.108;2022-08-01T01:22:41;4.12;;;3.83;;
9775;SDS011;4927;52.472;13.108;2022-08-01T01:27:51;4.00;;;3.80;;
9775;SDS011;4927;52.472;13.108;2022-08-01T01:32:58;4.22;;;4.03;;
9775;SDS011;4927;52.472;13.108;2022-08-01T01:38:08;3.97;;;3.87;;
9775;SDS011;4927;52.472;13.108;2022-08-01T01:43:15;4.50;;;4.30;;
9775;SDS011;4927;52.472;13.108;2022-08-01T01:48:21;4.70;;;4.40;;
9775;SDS011;4927;52.472;13.108;2022-08-01T01:53:28;4.70;;;4.50;;
9775;SDS011;4927;52.472;13.108;2022-08-01T01:58:34;4.53;;;4.28;;
9775;SDS011;4927;52.472;13.108;2022-08-01T02:03:40;4.37;;;4.28;;
9775;SDS011;4927;52.472;13.108;2022-08-01T02:08:47;5.30;;;5.00;;
9775;SDS011;4927;52.472;13.108;2022-08-01T02:13:57;4.80;;;4.60;;
9775;SDS011;4927;52.472;13.108;2022-08-01T02:19:04;5.10;;;4.80;;
9775;SDS011;4927;52.472;13.108;2022-08-01T02:24:14;5.40;;;5.10;;
9775;SDS011;4927;52.472;13.108;2022-08-01T02:29:21;4.60;;;4.40;;
9775;SDS011;4927;52.472;13.108;2022-08-01T02:34:27;5.05;;;4.75;;
9775;SDS011;4927;52.472;13.108;2022-08-01T02:39:33;4.80;;;4.60;;
9775;SDS011;4927;52.472;13.108;2022-08-01T02:44:41;4.70;;;4.50;;
9775;SDS011;4927;52.472;13.108;2022-08-01T02:49:47;4.72;;;4.53;;
9775;SDS011;4927;52.472;13.108;2022-08-01T02:54:53;4.70;;;4.50;;
9775;SDS011;4927;52.472;13.108;2022-08-01T02:59:59;5.10;;;4.80;;
9775;SDS011;4927;52.472;13.108;2022-08-01T03:05:05;5.05;;;4.75;;
9775;SDS011;4927;52.472;13.108;2022-08-01T03:10:13;5.00;;;4.70;;
9775;SDS011;4927;52.472;13.108;2022-08-01T03:15:19;5.82;;;5.60;;
9775;SDS011;4927;52.472;13.108;2022-08-01T03:20:25;4.82;;;4.53;;
9775;SDS011;4927;52.472;13.108;2022-08-01T03:25:32;4.57;;;4.18;;
9775;SDS011;4927;52.472;13.108;2022-08-01T03:30:38;4.80;;;4.60;;
9775;SDS011;4927;52.472;13.108;2022-08-01T03:35:46;4.60;;;4.40;;
9775;SDS011;4927;52.472;13.108;2022-08-01T03:40:53;4.75;;;4.65;;
9775;SDS011;4927;52.472;13.108;2022-08-01T03:45:59;4.90;;;4.70;;
9775;SDS011;4927;52.472;13.108;2022-08-01T03:51:04;5.00;;;4.78;;
9775;SDS011;4927;52.472;13.108;2022-08-01T03:56:10;5.50;;;5.20;;
9775;SDS011;4927;52.472;13.108;2022-08-01T04:01:17;5.15;;;4.95;;
9775;SDS011;4927;52.472;13.108;2022-08-01T04:06:23;5.20;;;4.90;;
9775;SDS011;4927;52.472;13.108;2022-08-01T04:11:30;5.70;;;5.30;;
9775;SDS011;4927;52.472;13.108;2022-08-01T04:16:37;6.30;;;6.10;;
9775;SDS011;4927;52.472;13.108;2022-08-01T04:21:43;5.00;;;4.80;;
9775;SDS011;4927;52.472;13.108;2022-08-01T04:26:49;6.50;;;4.90;;
9775;SDS011;4927;52.472;13.108;2022-08-01T04:31:56;5.12;;;4.90;;
9775;SDS011;4927;52.472;13.108;2022-08-01T04:37:03;5.25;;;5.05;;
9775;SDS011;4927;52.472;13.108;2022-08-01T04:42:10;4.95;;;4.75;;
9775;SDS011;4927;52.472;13.108;2022-08-01T04:47:16;5.25;;;4.95;;
9775;SDS011;4927;52.472;13.108;2022-08-01T04:52:22;6.85;;;6.35;;
9775;SDS011;4927;52.472;13.108;2022-08-01T04:57:29;6.00;;;5.80;;
9775;SDS011;4927;52.472;13.108;2022-08-01T05:02:36;6.28;;;5.97;;
9775;SDS011;4927;52.472;13.108;2022-08-01T05:07:42;5.95;;;5.75;;
9775;SDS011;4927;52.472;13.108;2022-08-01T05:12:49;6.12;;;5.85;;
9775;SDS011;4927;52.472;13.108;2022-08-01T05:17:55;6.18;;;5.90;;
9775;SDS011;4927;52.472;13.108;2022-08-01T05:23:05;6.78;;;6.47;;
9775;SDS011;4927;52.472;13.108;2022-08-01T05:28:12;5.80;;;5.60;;
9775;SDS011;4927;52.472;13.108;2022-08-01T05:33:16;6.62;;;6.32;;
9775;SDS011;4927;52.472;13.108;2022-08-01T05:38:22;5.28;;;5.07;;
9775;SDS011;4927;52.472;13.108;2022-08-01T05:43:28;4.85;;;4.65;;
9775;SDS011;4927;52.472;13.108;2022-08-01T05:48:35;4.90;;;4.70;;
9775;SDS011;4927;52.472;13.108;2022-08-01T05:53:42;4.32;;;4.20;;
9775;SDS011;4927;52.472;13.108;2022-08-01T05:58:49;4.50;;;4.10;;
9775;SDS011;4927;52.472;13.108;2022-08-01T06:03:55;4.47;;;4.28;;
9775;SDS011;4927;52.472;13.108;2022-08-01T06:09:01;4.32;;;4.12;;
9775;SDS011;4927;52.472;13.108;2022-08-01T06:14:08;3.67;;;3.53;;
9775;SDS011;4927;52.472;13.108;2022-08-01T06:19:14;3.60;;;3.50;;
9775;SDS011;4927;52.472;13.108;2022-08-01T06:24:20;3.70;;;3.60;;
9775;SDS011;4927;52.472;13.108;2022-08-01T06:29:26;3.90;;;3.80;;
9775;SDS011;4927;52.472;13.108;2022-08-01T06:34:33;4.10;;;4.00;;
9775;SDS011;4927;52.472;13.108;2022-08-01T06:39:39;4.70;;;4.50;;
9775;SDS011;4927;52.472;13.108;2022-08-01T06:44:45;3.97;;;3.67;;
9775;SDS011;4927;52.472;13.108;2022-08-01T06:49:50;3.80;;;3.70;;
9775;SDS011;4927;52.472;13.108;2022-08-01T06:54:56;3.53;;;3.42;;
9775;SDS011;4927;52.472;13.108;2022-08-01T07:00:03;3.37;;;3.17;;
9775;SDS011;4927;52.472;13.108;2022-08-01T07:05:10;3.55;;;3.45;;
9775;SDS011;4927;52.472;13.108;2022-08-01T07:10:20;3.40;;;3.30;;
9775;SDS011;4927;52.472;13.108;2022-08-01T07:15:27;3.37;;;3.28;;
9775;SDS011;4927;52.472;13.108;2022-08-01T07:20:33;3.40;;;3.30;;
9775;SDS011;4927;52.472;13.108;2022-08-01T07:25:39;5.05;;;4.85;;
9775;SDS011;4927;52.472;13.108;2022-08-01T07:30:45;5.22;;;5.12;;
9775;SDS011;4927;52.472;13.108;2022-08-01T07:35:52;5.80;;;5.60;;
9775;SDS011;4927;52.472;13.108;2022-08-01T07:40:58;5.57;;;5.40;;
9775;SDS011;4927;52.472;13.108;2022-08-01T07:46:04;5.45;;;5.25;;
9775;SDS011;4927;52.472;13.108;2022-08-01T07:51:11;4.90;;;4.70;;
9775;SDS011;4927;52.472;13.108;2022-08-01T07:56:17;5.00;;;4.80;;
9775;SDS011;4927;52.472;13.108;2022-08-01T08:01:24;3.90;;;3.80;;
9775;SDS011;4927;52.472;13.108;2022-08-01T08:06:30;3.28;;;3.17;;
9775;SDS011;4927;52.472;13.108;2022-08-01T08:11:36;3.00;;;2.90;;
9775;SDS011;4927;52.472;13.108;2022-08-01T08:16:43;2.80;;;2.70;;
9775;SDS011;4927;52.472;13.108;2022-08-01T08:21:49;2.20;;;2.20;;
9775;SDS011;4927;52.472;13.108;2022-08-01T08:26:57;2.20;;;2.10;;
9775;SDS011;4927;52.472;13.108;2022-08-01T08:32:02;4.10;;;2.03;;
9775;SDS011;4927;52.472;13.108;2022-08-01T08:37:09;2.30;;;2.20;;
9775;SDS011;4927;52.472;13.108;2022-08-01T08:42:15;2.30;;;2.20;;
9775;SDS011;4927;52.472;13.108;2022-08-01T08:47:22;2.30;;;2.10;;
9775;SDS011;4927;52.472;13.108;2022-08-01T08:52:28;2.25;;;2.15;;
9775;SDS011;4927;52.472;13.108;2022-08-01T08:57:34;1.80;;;1.80;;
9775;SDS011;4927;52.472;13.108;2022-08-01T09:02:45;1.60;;;1.60;;
9775;SDS011;4927;52.472;13.108;2022-08-01T09:07:51;2.85;;;2.65;;
9775;SDS011;4927;52.472;13.108;2022-08-01T09:13:09;1.90;;;1.90;;
9775;SDS011;4927;52.472;13.108;2022-08-01T09:18:25;1.70;;;1.70;;
9775;SDS011;4927;52.472;13.108;2022-08-01T09:23:39;2.00;;;1.80;;
9775;SDS011;4927;52.472;13.108;2022-08-01T09:28:45;1.60;;;1.50;;
9775;SDS011;4927;52.472;13.108;2022-08-01T09:33:53;1.30;;;1.30;;
9775;SDS011;4927;52.472;13.108;2022-08-01T09:38:59;2.00;;;1.50;;
9775;SDS011;4927;52.472;13.108;2022-08-01T09:44:05;1.50;;;1.40;;
9775;SDS011;4927;52.472;13.108;2022-08-01T09:49:11;1.30;;;1.30;;
9775;SDS011;4927;52.472;13.108;2022-08-01T09:54:27;1.05;;;1.05;;
9775;SDS011;4927;52.472;13.108;2022-08-01T09:59:33;1.05;;;1.05;;
9775;SDS011;4927;52.472;13.108;2022-08-01T10:04:30;1.30;;;1.30;;
9775;SDS011;4927;52.472;13.108;2022-08-01T10:09:36;1.20;;;1.10;;
9775;SDS011;4927;52.472;13.108;2022-08-01T10:14:43;1.20;;;1.20;;
9775;SDS011;4927;52.472;13.108;2022-08-01T10:19:49;1.20;;;1.20;;
9775;SDS011;4927;52.472;13.108;2022-08-01T10:24:55;1.20;;;1.20;;
9775;SDS011;4927;52.472;13.108;2022-08-01T10:30:03;1.30;;;1.30;;
9775;SDS011;4927;52.472;13.108;2022-08-01T10:35:09;1.20;;;1.20;;
9775;SDS011;4927;52.472;13.108;2022-08-01T10:40:16;3.00;;;1.20;;
9775;SDS011;4927;52.472;13.108;2022-08-01T10:45:22;2.10;;;1.20;;
9775;SDS011;4927;52.472;13.108;2022-08-01T10:50:31;1.30;;;1.30;;
9775;SDS011;4927;52.472;13.108;2022-08-01T10:55:44;1.00;;;1.00;;
9775;SDS011;4927;52.472;13.108;2022-08-01T11:06:03;1.10;;;1.10;;
9775;SDS011;4927;52.472;13.108;2022-08-01T11:11:09;1.20;;;1.20;;
9775;SDS011;4927;52.472;13.108;2022-08-01T11:16:24;1.10;;;1.00;;
9775;SDS011;4927;52.472;13.108;2022-08-01T11:37:28;2.10;;;1.40;;
9775;SDS011;4927;52.472;13.108;2022-08-01T11:42:34;0.90;;;0.90;;
9775;SDS011;4927;52.472;13.108;2022-08-01T11:47:43;2.10;;;1.10;;
9775;SDS011;4927;52.472;13.108;2022-08-01T11:52:56;2.70;;;1.00;;
9775;SDS011;4927;52.472;13.108;2022-08-01T11:57:59;1.55;;;1.20;;
9775;SDS011;4927;52.472;13.108;2022-08-01T12:03:05;1.00;;;1.00;;
9775;SDS011;4927;52.472;13.108;2022-08-01T12:08:11;1.12;;;1.02;;
9775;SDS011;4927;52.472;13.108;2022-08-01T12:13:17;1.90;;;1.20;;
9775;SDS011;4927;52.472;13.108;2022-08-01T12:18:23;0.93;;;0.90;;
9775;SDS011;4927;52.472;13.108;2022-08-01T12:23:30;1.10;;;1.00;;
9775;SDS011;4927;52.472;13.108;2022-08-01T12:28:38;1.00;;;1.00;;
9775;SDS011;4927;52.472;13.108;2022-08-01T12:33:44;1.00;;;1.00;;
9775;SDS011;4927;52.472;13.108;2022-08-01T12:38:52;3.95;;;1.30;;
9775;SDS011;4927;52.472;13.108;2022-08-01T12:43:58;1.12;;;1.12;;
9775;SDS011;4927;52.472;13.108;2022-08-01T12:49:04;0.90;;;0.90;;
9775;SDS011;4927;52.472;13.108;2022-08-01T12:54:10;0.90;;;0.90;;
9775;SDS011;4927;52.472;13.108;2022-08-01T12:59:27;1.20;;;0.90;;
9775;SDS011;4927;52.472;13.108;2022-08-01T13:04:33;3.25;;;0.80;;
9775;SDS011;4927;52.472;13.108;2022-08-01T13:09:48;1.40;;;0.70;;
9775;SDS011;4927;52.472;13.108;2022-08-01T13:14:46;3.20;;;0.90;;
9775;SDS011;4927;52.472;13.108;2022-08-01T13:19:52;1.70;;;0.80;;
9775;SDS011;4927;52.472;13.108;2022-08-01T13:30:20;0.70;;;0.70;;
9775;SDS011;4927;52.472;13.108;2022-08-01T13:35:27;0.70;;;0.70;;
9775;SDS011;4927;52.472;13.108;2022-08-01T13:40:34;0.73;;;0.73;;
9775;SDS011;4927;52.472;13.108;2022-08-01T13:45:42;1.60;;;0.70;;
9775;SDS011;4927;52.472;13.108;2022-08-01T13:50:48;0.70;;;0.70;;
9775;SDS011;4927;52.472;13.108;2022-08-01T13:55:54;2.80;;;0.68;;
9775;SDS011;4927;52.472;13.108;2022-08-01T14:01:01;0.80;;;0.80;;
9775;SDS011;4927;52.472;13.108;2022-08-01T14:06:07;1.30;;;0.80;;
9775;SDS011;4927;52.472;13.108;2022-08-01T14:11:13;1.70;;;0.80;;
9775;SDS011;4927;52.472;13.108;2022-08-01T14:16:20;1.10;;;1.10;;
9775;SDS011;4927;52.472;13.108;2022-08-01T14:21:26;0.90;;;0.90;;
9775;SDS011;4927;52.472;13.108;2022-08-01T14:26:33;0.93;;;0.90;;
9775;SDS011;4927;52.472;13.108;2022-08-01T14:31:39;1.40;;;0.80;;
9775;SDS011;4927;52.472;13.108;2022-08-01T14:36:45;0.70;;;0.70;;
9775;SDS011;4927;52.472;13.108;2022-08-01T14:41:52;1.70;;;0.60;;
9775;SDS011;4927;52.472;13.108;2022-08-01T14:46:58;1.70;;;0.80;;
9775;SDS011;4927;52.472;13.108;2022-08-01T14:52:05;2.40;;;0.80;;
9775;SDS011;4927;52.472;13.108;2022-08-01T14:57:11;1.70;;;0.70;;
9775;SDS011;4927;52.472;13.108;2022-08-01T15:02:17;4.80;;;0.90;;
9775;SDS011;4927;52.472;13.108;2022-08-01T15:07:25;0.90;;;0.80;;
9775;SDS011;4927;52.472;13.108;2022-08-01T15:12:32;0.70;;;0.70;;
9775;SDS011;4927;52.472;13.108;2022-08-01T15:17:39;1.80;;;0.90;;
9775;SDS011;4927;52.472;13.108;2022-08-01T15:22:45;0.80;;;0.80;;
9775;SDS011;4927;52.472;13.108;2022-08-01T15:27:51;1.10;;;0.80;;
9775;SDS011;4927;52.472;13.108;2022-08-01T15:32:57;2.00;;;1.10;;
9775;SDS011;4927;52.472;13.108;2022-08-01T15:38:04;1.80;;;1.00;;
9775;SDS011;4927;52.472;13.108;2022-08-01T15:43:10;1.30;;;1.00;;
9775;SDS011;4927;52.472;13.108;2022-08-01T15:48:16;0.95;;;0.95;;
9775;SDS011;4927;52.472;13.108;2022-08-01T15:53:23;1.62;;;0.80;;
9775;SDS011;4927;52.472;13.108;2022-08-01T15:58:29;1.00;;;1.00;;
9775;SDS011;4927;52.472;13.108;2022-08-01T16:03:35;0.80;;;0.80;;
9775;SDS011;4927;52.472;13.108;2022-08-01T16:08:41;1.70;;;1.60;;
9775;SDS011;4927;52.472;13.108;2022-08-01T16:13:48;3.40;;;1.00;;
9775;SDS011;4927;52.472;13.108;2022-08-01T16:18:55;0.98;;;0.88;;
9775;SDS011;4927;52.472;13.108;2022-08-01T16:23:59;3.90;;;1.00;;
9775;SDS011;4927;52.472;13.108;2022-08-01T16:29:03;1.30;;;0.82;;
9775;SDS011;4927;52.472;13.108;2022-08-01T16:34:10;1.00;;;0.88;;
9775;SDS011;4927;52.472;13.108;2022-08-01T16:39:16;1.60;;;1.10;;
9775;SDS011;4927;52.472;13.108;2022-08-01T16:44:22;0.80;;;0.80;;
9775;SDS011;4927;52.472;13.108;2022-08-01T16:49:29;1.20;;;1.10;;
9775;SDS011;4927;52.472;13.108;2022-08-01T16:54:35;0.90;;;0.90;;
9775;SDS011;4927;52.472;13.108;2022-08-01T16:59:41;1.40;;;0.98;;
9775;SDS011;4927;52.472;13.108;2022-08-01T17:04:47;0.90;;;0.90;;
9775;SDS011;4927;52.472;13.108;2022-08-01T17:09:54;0.90;;;0.90;;
9775;SDS011;4927;52.472;13.108;2022-08-01T17:15:05;2.00;;;0.90;;
9775;SDS011;4927;52.472;13.108;2022-08-01T17:20:12;0.90;;;0.90;;
9775;SDS011;4927;52.472;13.108;2022-08-01T17:25:19;0.70;;;0.70;;
9775;SDS011;4927;52.472;13.108;2022-08-01T17:30:25;0.95;;;0.93;;
9775;SDS011;4927;52.472;13.108;2022-08-01T17:35:31;1.60;;;1.20;;
9775;SDS011;4927;52.472;13.108;2022-08-01T17:40:38;1.10;;;1.10;;
9775;SDS011;4927;52.472;13.108;2022-08-01T17:45:45;1.17;;;1.10;;
9775;SDS011;4927;52.472;13.108;2022-08-01T17:50:51;1.20;;;0.90;;
9775;SDS011;4927;52.472;13.108;2022-08-01T17:55:58;1.50;;;1.40;;
9775;SDS011;4927;52.472;13.108;2022-08-01T18:01:04;1.20;;;1.10;;
9775;SDS011;4927;52.472;13.108;2022-08-01T18:06:11;1.30;;;1.20;;
9775;SDS011;4927;52.472;13.108;2022-08-01T18:11:17;1.30;;;1.20;;
9775;SDS011;4927;52.472;13.108;2022-08-01T18:16:23;2.80;;;1.40;;
9775;SDS011;4927;52.472;13.108;2022-08-01T18:21:29;1.30;;;1.30;;
9775;SDS011;4927;52.472;13.108;2022-08-01T18:26:35;1.80;;;1.70;;
9775;SDS011;4927;52.472;13.108;2022-08-01T18:31:42;2.00;;;1.90;;
9775;SDS011;4927;52.472;13.108;2022-08-01T18:36:48;5.78;;;5.20;;
9775;SDS011;4927;52.472;13.108;2022-08-01T18:41:54;1.90;;;1.70;;
9775;SDS011;4927;52.472;13.108;2022-08-01T18:47:01;1.62;;;1.52;;
9775;SDS011;4927;52.472;13.108;2022-08-01T18:52:08;2.20;;;1.40;;
9775;SDS011;4927;52.472;13.108;2022-08-01T18:57:14;1.17;;;1.17;;
9775;SDS011;4927;52.472;13.108;2022-08-01T19:02:21;1.70;;;1.20;;
9775;SDS011;4927;52.472;13.108;2022-08-01T19:07:29;1.50;;;1.50;;
9775;SDS011;4927;52.472;13.108;2022-08-01T19:12:35;1.60;;;1.50;;
9775;SDS011;4927;52.472;13.108;2022-08-01T19:17:42;1.70;;;1.70;;
9775;SDS011;4927;52.472;13.108;2022-08-01T19:22:48;2.55;;;2.35;;
9775;SDS011;4927;52.472;13.108;2022-08-01T19:27:54;2.20;;;2.00;;
9775;SDS011;4927;52.472;13.108;2022-08-01T19:32:58;1.37;;;1.27;;
9775;SDS011;4927;52.472;13.108;2022-08-01T19:38:05;1.30;;;1.30;;
9775;SDS011;4927;52.472;13.108;2022-08-01T19:43:11;1.70;;;1.60;;
9775;SDS011;4927;52.472;13.108;2022-08-01T19:48:17;2.10;;;1.40;;
9775;SDS011;4927;52.472;13.108;2022-08-01T19:53:24;1.50;;;1.40;;
9775;SDS011;4927;52.472;13.108;2022-08-01T19:58:30;1.60;;;1.50;;
9775;SDS011;4927;52.472;13.108;2022-08-01T20:03:36;1.90;;;1.80;;
9775;SDS011;4927;52.472;13.108;2022-08-01T20:08:43;2.97;;;2.78;;
9775;SDS011;4927;52.472;13.108;2022-08-01T20:13:49;2.15;;;1.95;;
9775;SDS011;4927;52.472;13.108;2022-08-01T20:18:55;2.10;;;2.00;;
9775;SDS011;4927;52.472;13.108;2022-08-01T20:24:01;1.70;;;1.60;;
9775;SDS011;4927;52.472;13.108;2022-08-01T20:29:08;1.90;;;1.80;;
9775;SDS011;4927;52.472;13.108;2022-08-01T20:34:15;1.90;;;1.70;;
9775;SDS011;4927;52.472;13.108;2022-08-01T20:39:21;2.10;;;1.60;;
9775;SDS011;4927;52.472;13.108;2022-08-01T20:44:28;4.10;;;1.80;;
9775;SDS011;4927;52.472;13.108;2022-08-01T20:49:34;3.03;;;2.00;;
9775;SDS011;4927;52.472;13.108;2022-08-01T20:54:41;1.90;;;1.80;;
9775;SDS011;4927;52.472;13.108;2022-08-01T20:59:50;2.20;;;2.10;;
9775;SDS011;4927;52.472;13.108;2022-08-01T21:04:56;2.50;;;2.15;;
9775;SDS011;4927;52.472;13.108;2022-08-01T21:10:14;2.33;;;1.90;;
9775;SDS011;4927;52.472;13.108;2022-08-01T21:15:23;2.00;;;1.90;;
9775;SDS011;4927;52.472;13.108;2022-08-01T21:20:38;1.98;;;1.87;;
9775;SDS011;4927;52.472;13.108;2022-08-01T21:25:45;2.37;;;2.17;;
9775;SDS011;4927;52.472;13.108;2022-08-01T21:30:54;2.50;;;1.87;;
9775;SDS011;4927;52.472;13.108;2022-08-01T21:36:01;4.20;;;2.10;;
9775;SDS011;4927;52.472;13.108;2022-08-01T21:41:07;2.20;;;2.10;;
9775;SDS011;4927;52.472;13.108;2022-08-01T21:46:14;2.35;;;1.65;;
9775;SDS011;4927;52.472;13.108;2022-08-01T21:51:23;2.58;;;1.90;;
9775;SDS011;4927;52.472;13.108;2022-08-01T21:56:47;2.00;;;1.80;;
9775;SDS011;4927;52.472;13.108;2022-08-01T22:01:52;5.22;;;2.05;;
9775;SDS011;4927;52.472;13.108;2022-08-01T22:06:55;3.00;;;1.90;;
9775;SDS011;4927;52.472;13.108;2022-08-01T22:12:01;1.83;;;1.73;;
9775;SDS011;4927;52.472;13.108;2022-08-01T22:17:09;1.90;;;1.80;;
9775;SDS011;4927;52.472;13.108;2022-08-01T22:22:15;3.20;;;1.70;;
9775;SDS011;4927;52.472;13.108;2022-08-01T22:27:21;2.20;;;1.50;;
9775;SDS011;4927;52.472;13.108;2022-08-01T22:32:30;1.80;;;1.70;;
9775;SDS011;4927;52.472;13.108;2022-08-01T22:37:35;7.50;;;1.90;;
9775;SDS011;4927;52.472;13.108;2022-08-01T22:42:45;3.80;;;1.52;;
9775;SDS011;4927;52.472;13.108;2022-08-01T22:47:54;2.00;;;1.75;;
9775;SDS011;4927;52.472;13.108;2022-08-01T22:53:13;1.80;;;1.60;;
9775;SDS011;4927;52.472;13.108;2022-08-01T22:58:17;2.20;;;2.00;;
9775;SDS011;4927;52.472;13.108;2022-08-01T23:03:28;1.48;;;1.30;;
9775;SDS011;4927;52.472;13.108;2022-08-01T23:08:34;1.92;;;1.60;;
9775;SDS011;4927;52.472;13.108;2022-08-01T23:13:41;1.58;;;1.50;;
9775;SDS011;4927;52.472;13.108;2022-08-01T23:18:48;1.90;;;1.80;;
9775;SDS011;4927;52.472;13.108;2022-08-01T23:23:54;1.83;;;1.73;;
9775;SDS011;4927;52.472;13.108;2022-08-01T23:29:00;2.10;;;2.00;;
9775;SDS011;4927;52.472;13.108;2022-08-01T23:34:06;1.80;;;1.70;;
9775;SDS011;4927;52.472;13.108;2022-08-01T23:39:13;2.30;;;1.50;;
9775;SDS011;4927;52.472;13.108;2022-08-01T23:44:19;3.62;;;1.70;;
9775;SDS011;4927;52.472;13.108;2022-08-01T23:49:25;3.60;;;1.50;;
9775;SDS011;4927;52.472;13.108;2022-08-01T23:54:32;1.52;;;1.40;;
9775;SDS011;4927;52.472;13.108;2022-08-01T23:59:38;1.55;;;1.45;;
